Time;durP1;ratioP1;P1;durP2;ratioP2;P2;SDS_P1;SDS_P2;PMS_P1;PMS_P2;Temp;Humidity;BMP_temperature;BMP_pressure;BME280_temperature;BME280_humidity;BME280_pressure;Samples;Min_cycle;Max_cycle;Signal;HPM_P1;HPM_P2
2022/08/19 00:00:00;;;;;;;8.25;5.10;;;20.70;68.90;;;;;;9185284;19;20809;-68
2022/08/19 00:03:08;;;;;;;7.45;5.05;;;20.60;68.80;;;;;;9185262;19;20077;-69
2022/08/19 00:06:13;;;;;;;12.82;5.20;;;20.60;69.50;;;;;;9179674;19;20021;-67
2022/08/19 00:09:27;;;;;;;5.95;4.55;;;20.60;69.00;;;;;;9184976;19;20814;-68
2022/08/19 00:12:32;;;;;;;10.68;5.05;;;20.50;69.00;;;;;;9184987;19;20493;-68
2022/08/19 00:15:44;;;;;;;6.07;4.53;;;20.50;69.10;;;;;;9185408;19;20343;-68
2022/08/19 00:18:50;;;;;;;8.27;5.30;;;20.50;69.10;;;;;;9183155;19;20011;-70
2022/08/19 00:21:55;;;;;;;6.43;4.68;;;20.40;69.10;;;;;;9184823;19;20024;-67
2022/08/19 00:25:03;;;;;;;8.45;5.10;;;20.40;69.20;;;;;;9185326;19;20082;-67
2022/08/19 00:28:08;;;;;;;10.48;5.35;;;20.40;69.30;;;;;;9184388;19;20025;-68
2022/08/19 00:31:13;;;;;;;9.68;5.13;;;20.30;69.30;;;;;;9180534;19;20022;-68
2022/08/19 00:34:18;;;;;;;8.38;4.93;;;20.30;69.30;;;;;;9183608;19;20021;-67
2022/08/19 00:37:25;;;;;;;7.63;5.15;;;20.30;69.40;;;;;;9183061;19;20022;-67
2022/08/19 00:40:33;;;;;;;7.53;5.50;;;20.20;69.40;;;;;;9182042;19;20048;-68
2022/08/19 00:43:38;;;;;;;11.07;4.90;;;20.20;69.50;;;;;;9183621;19;20053;-67
2022/08/19 00:46:46;;;;;;;8.65;5.60;;;20.10;69.50;;;;;;9183436;19;20021;-67
2022/08/19 00:50:02;;;;;;;7.90;5.38;;;20.10;69.60;;;;;;9182208;19;20085;-68
2022/08/19 00:53:08;;;;;;;8.00;5.50;;;20.10;69.70;;;;;;9184399;19;20010;-68
2022/08/19 00:56:18;;;;;;;7.55;5.32;;;20.00;69.70;;;;;;9182469;19;20022;-67
2022/08/19 00:59:23;;;;;;;11.18;6.22;;;20.00;69.70;;;;;;9182658;19;20034;-67
2022/08/19 01:02:48;;;;;;;9.35;6.13;;;20.00;69.80;;;;;;9182142;19;20015;-69
2022/08/19 01:05:56;;;;;;;11.93;7.22;;;19.90;69.80;;;;;;9177743;19;20019;-67
2022/08/19 01:09:02;;;;;;;9.02;7.18;;;19.90;70.00;;;;;;9182229;19;20044;-68
2022/08/19 01:12:10;;;;;;;8.45;6.82;;;19.90;70.00;;;;;;9180031;19;20018;-67
2022/08/19 01:15:20;;;;;;;10.05;7.15;;;19.80;70.20;;;;;;9181207;19;20011;-67
2022/08/19 01:18:27;;;;;;;11.77;7.53;;;19.80;70.20;;;;;;9180434;19;20015;-67
2022/08/19 01:21:36;;;;;;;11.25;8.00;;;19.80;70.20;;;;;;9181270;19;20013;-66
2022/08/19 01:24:44;;;;;;;13.82;7.70;;;19.70;70.40;;;;;;9183136;19;20355;-67
2022/08/19 01:27:55;;;;;;;12.00;7.55;;;19.70;70.40;;;;;;9181651;19;20516;-67
2022/08/19 01:31:06;;;;;;;13.93;8.23;;;19.70;70.40;;;;;;9178432;19;20021;-67
2022/08/19 01:34:12;;;;;;;19.15;8.95;;;19.70;70.50;;;;;;9181592;19;20359;-67
2022/08/19 01:37:17;;;;;;;11.25;7.95;;;19.60;70.50;;;;;;9181011;19;20025;-67
2022/08/19 01:40:35;;;;;;;16.67;8.98;;;19.60;70.60;;;;;;9180141;19;20010;-66
2022/08/19 01:43:40;;;;;;;10.35;8.43;;;19.60;70.70;;;;;;9181488;19;20018;-67
2022/08/19 01:47:06;;;;;;;12.57;8.75;;;19.60;70.70;;;;;;9180781;19;20345;-67
2022/08/19 01:50:13;;;;;;;12.07;9.35;;;19.60;70.80;;;;;;9181249;19;20044;-66
2022/08/19 01:53:18;;;;;;;15.68;9.27;;;19.50;70.80;;;;;;9179885;19;20029;-67
2022/08/19 01:56:26;;;;;;;14.65;9.27;;;19.50;70.80;;;;;;9180857;19;20022;-67
2022/08/19 01:59:36;;;;;;;14.45;9.40;;;19.40;70.90;;;;;;9180228;19;20025;-67
2022/08/19 02:02:41;;;;;;;12.52;9.52;;;19.40;71.00;;;;;;9180203;19;20018;-68
2022/08/19 02:06:00;;;;;;;12.68;9.45;;;19.40;71.00;;;;;;9175945;19;20027;-69
2022/08/19 02:09:07;;;;;;;14.75;9.43;;;19.40;71.20;;;;;;9180078;19;20034;-68
2022/08/19 02:12:16;;;;;;;13.38;9.68;;;19.40;71.20;;;;;;9177209;19;20022;-67
2022/08/19 02:15:22;;;;;;;14.15;10.43;;;19.30;71.20;;;;;;9179936;19;20014;-68
2022/08/19 02:18:27;;;;;;;16.40;10.75;;;19.30;71.30;;;;;;9180388;19;20377;-68
2022/08/19 02:21:33;;;;;;;16.15;10.13;;;19.30;71.30;;;;;;9179806;19;20011;-67
2022/08/19 02:24:38;;;;;;;16.58;10.52;;;19.30;71.40;;;;;;9179427;19;20018;-68
2022/08/19 02:27:46;;;;;;;15.82;9.88;;;19.30;71.50;;;;;;9181058;19;20466;-68
2022/08/19 02:30:53;;;;;;;13.05;9.52;;;19.20;71.50;;;;;;9185937;19;20030;-67
2022/08/19 02:33:59;;;;;;;15.68;10.25;;;19.20;71.50;;;;;;9188761;19;20002;-67
2022/08/19 02:37:04;;;;;;;15.75;10.98;;;19.20;71.60;;;;;;9188694;19;20026;-67
2022/08/19 02:40:07;;;;;;;14.40;10.70;;;19.20;71.60;;;;;;9185943;19;20018;-68
2022/08/19 02:43:19;;;;;;;17.58;10.50;;;19.10;71.70;;;;;;9188019;19;20010;-68
2022/08/19 02:46:27;;;;;;;17.05;11.63;;;19.10;71.80;;;;;;9188567;19;20025;-67
2022/08/19 02:49:34;;;;;;;16.58;11.00;;;19.10;71.80;;;;;;9187538;19;20499;-67
2022/08/19 02:52:39;;;;;;;15.25;11.52;;;19.10;71.90;;;;;;9185186;19;20464;-67
2022/08/19 02:55:48;;;;;;;15.07;11.20;;;19.10;72.00;;;;;;9187866;19;20040;-67
2022/08/19 02:58:56;;;;;;;22.05;11.85;;;19.00;72.00;;;;;;9187295;19;20022;-67
2022/08/19 03:02:01;;;;;;;18.40;12.00;;;19.00;72.10;;;;;;9187279;19;20313;-67
2022/08/19 03:05:08;;;;;;;14.68;11.00;;;19.00;72.00;;;;;;9183217;19;20014;-68
2022/08/19 03:08:14;;;;;;;13.93;10.82;;;19.00;72.10;;;;;;9185658;19;20475;-66
2022/08/19 03:11:21;;;;;;;15.32;11.65;;;19.00;72.20;;;;;;9185646;19;20816;-67
2022/08/19 03:14:29;;;;;;;18.05;12.30;;;18.90;72.10;;;;;;9187031;19;20019;-68
2022/08/19 03:17:34;;;;;;;17.48;11.60;;;18.90;72.20;;;;;;9187499;19;20014;-67
2022/08/19 03:20:44;;;;;;;16.63;11.70;;;18.90;72.20;;;;;;9186607;19;20480;-68
2022/08/19 03:23:50;;;;;;;18.15;11.57;;;18.90;72.40;;;;;;9186425;19;20022;-66
2022/08/19 03:26:58;;;;;;;19.95;11.73;;;18.80;72.30;;;;;;9185995;19;20018;-67
2022/08/19 03:30:07;;;;;;;16.05;12.05;;;18.80;72.40;;;;;;9186669;19;20021;-68
2022/08/19 03:33:15;;;;;;;15.98;11.38;;;18.80;72.40;;;;;;9183914;19;20018;-69
2022/08/19 03:36:29;;;;;;;17.50;12.32;;;18.80;72.40;;;;;;9186817;19;20022;-67
2022/08/19 03:39:35;;;;;;;16.92;11.90;;;18.70;72.50;;;;;;9183587;19;20018;-68
2022/08/19 03:42:42;;;;;;;18.92;12.20;;;18.70;72.50;;;;;;9186462;19;20011;-67
2022/08/19 03:46:06;;;;;;;21.73;13.13;;;18.70;72.60;;;;;;9185851;19;20014;-67
2022/08/19 03:49:11;;;;;;;16.80;12.07;;;18.60;72.70;;;;;;9186427;19;20010;-66
2022/08/19 03:52:18;;;;;;;16.10;11.38;;;18.60;72.70;;;;;;9184191;19;20839;-66
2022/08/19 03:55:23;;;;;;;17.00;11.50;;;18.60;72.70;;;;;;9186287;19;20015;-67
2022/08/19 03:58:29;;;;;;;17.65;11.93;;;18.60;72.70;;;;;;9185688;19;20015;-69
2022/08/19 04:01:38;;;;;;;20.55;12.70;;;18.60;72.80;;;;;;9184781;19;20029;-67
2022/08/19 04:04:44;;;;;;;16.95;12.23;;;18.50;72.80;;;;;;9179476;19;20022;-66
2022/08/19 04:07:49;;;;;;;15.52;11.73;;;18.50;72.80;;;;;;9184732;19;20018;-67
2022/08/19 04:10:54;;;;;;;15.10;11.52;;;18.50;72.80;;;;;;9184392;19;20010;-67
2022/08/19 04:14:00;;;;;;;16.23;11.70;;;18.50;72.90;;;;;;9184954;19;20050;-68
2022/08/19 04:17:10;;;;;;;20.10;12.88;;;18.40;72.90;;;;;;9184270;19;20632;-66
2022/08/19 04:20:15;;;;;;;18.52;12.15;;;18.40;72.90;;;;;;9184507;19;20022;-67
2022/08/19 04:23:21;;;;;;;19.15;12.20;;;18.40;72.90;;;;;;9180011;19;20018;-68
2022/08/19 04:26:31;;;;;;;19.73;11.93;;;18.40;73.00;;;;;;9183764;19;20018;-68
2022/08/19 04:29:39;;;;;;;17.05;12.85;;;18.30;73.70;;;;;;9184304;19;20021;-67
2022/08/19 04:32:46;;;;;;;15.80;12.07;;;18.30;73.00;;;;;;9184823;19;20010;-67
2022/08/19 04:35:54;;;;;;;16.85;11.32;;;18.30;73.10;;;;;;9182062;19;20021;-66
2022/08/19 04:39:02;;;;;;;16.63;12.02;;;18.20;73.10;;;;;;9183259;19;20010;-66
2022/08/19 04:45:34;;;;;;;16.48;9.82;;;18.20;73.20;;;;;;9182940;19;20042;-67
2022/08/19 04:48:50;;;;;;;14.95;10.52;;;18.10;73.10;;;;;;9184047;19;20031;-67
2022/08/19 04:51:56;;;;;;;13.00;9.75;;;18.10;73.20;;;;;;9179038;19;20027;-67
2022/08/19 04:55:01;;;;;;;14.07;9.95;;;18.10;73.30;;;;;;9182955;19;20006;-68
2022/08/19 04:58:06;;;;;;;11.20;8.82;;;18.10;73.30;;;;;;9181415;19;20014;-66
2022/08/19 05:01:13;;;;;;;15.18;9.88;;;18.10;73.40;;;;;;9180511;19;20018;-67
2022/08/19 05:04:22;;;;;;;12.90;9.25;;;18.10;73.50;;;;;;9178997;19;20006;-66
2022/08/19 05:07:27;;;;;;;18.73;10.52;;;18.00;73.50;;;;;;9183010;19;20021;-66
2022/08/19 05:10:32;;;;;;;12.13;9.70;;;18.00;73.50;;;;;;9183092;19;20039;-66
2022/08/19 05:13:38;;;;;;;13.88;10.00;;;18.00;73.50;;;;;;9181704;19;20022;-67
2022/08/19 05:16:45;;;;;;;16.80;9.57;;;18.00;73.60;;;;;;9182134;19;20566;-66
2022/08/19 05:23:15;;;;;;;13.65;9.50;;;18.00;73.70;;;;;;9178753;19;20460;-67
2022/08/19 05:26:27;;;;;;;13.80;9.88;;;18.00;73.70;;;;;;9181341;19;20426;-66
2022/08/19 05:29:33;;;;;;;12.45;8.70;;;17.90;73.60;;;;;;9176761;19;20019;-66
2022/08/19 05:32:40;;;;;;;14.52;9.40;;;17.90;73.60;;;;;;9176165;19;20048;-67
2022/08/19 05:35:48;;;;;;;15.88;9.15;;;17.90;73.70;;;;;;9182028;19;20336;-66
2022/08/19 05:38:53;;;;;;;11.80;8.20;;;17.90;73.80;;;;;;9180669;19;20025;-66
2022/08/19 05:42:00;;;;;;;11.75;8.98;;;17.90;73.80;;;;;;9180316;19;20018;-66
2022/08/19 05:45:06;;;;;;;13.75;9.15;;;17.90;73.90;;;;;;9181105;19;20022;-67
2022/08/19 05:48:12;;;;;;;16.50;9.95;;;17.90;73.90;;;;;;9181248;19;20026;-66
2022/08/19 05:51:20;;;;;;;12.38;9.32;;;17.90;73.90;;;;;;9181124;19;20502;-67
2022/08/19 05:54:26;;;;;;;11.95;8.75;;;17.90;74.00;;;;;;9180375;19;20042;-67
2022/08/19 05:57:32;;;;;;;12.38;8.25;;;17.90;73.90;;;;;;9178208;19;20021;-67
2022/08/19 06:00:37;;;;;;;12.52;9.00;;;17.90;73.90;;;;;;9180508;19;20034;-67
2022/08/19 06:03:42;;;;;;;11.50;8.75;;;17.90;74.00;;;;;;9177392;19;20077;-67
2022/08/19 06:06:51;;;;;;;13.32;10.43;;;17.90;74.10;;;;;;9175680;19;20039;-67
2022/08/19 06:09:56;;;;;;;15.95;11.25;;;18.00;74.30;;;;;;9178092;19;20495;-67
2022/08/19 06:13:05;;;;;;;15.52;10.60;;;18.00;74.20;;;;;;9179671;19;20022;-68
2022/08/19 06:16:10;;;;;;;12.52;9.32;;;18.00;74.40;;;;;;9179361;19;20019;-68
2022/08/19 06:19:17;;;;;;;17.25;10.88;;;18.00;74.50;;;;;;9178430;19;20052;-67
2022/08/19 06:22:25;;;;;;;13.05;9.65;;;18.10;74.70;;;;;;9179094;19;20018;-68
2022/08/19 06:25:30;;;;;;;15.23;10.75;;;18.20;74.80;;;;;;9179013;19;20039;-67
2022/08/19 06:28:35;;;;;;;17.60;11.38;;;18.20;74.80;;;;;;9179648;19;20033;-67
2022/08/19 06:31:45;;;;;;;17.98;9.75;;;18.30;74.80;;;;;;9179174;19;20019;-67
2022/08/19 06:34:49;;;;;;;16.73;10.45;;;18.40;75.00;;;;;;9177673;19;20014;-67
2022/08/19 06:37:57;;;;;;;19.90;12.70;;;18.50;75.00;;;;;;9179159;19;20018;-67
2022/08/19 06:41:06;;;;;;;18.83;12.77;;;18.60;75.10;;;;;;9177135;19;20074;-67
2022/08/19 06:44:12;;;;;;;21.88;12.70;;;18.70;75.10;;;;;;9177002;19;20622;-67
2022/08/19 06:47:19;;;;;;;21.90;13.70;;;18.80;75.10;;;;;;9177796;19;20048;-66
2022/08/19 06:50:32;;;;;;;19.40;12.85;;;19.00;75.30;;;;;;9178204;19;20106;-68
2022/08/19 06:53:46;;;;;;;19.08;12.85;;;19.10;75.30;;;;;;9177406;19;20018;-66
2022/08/19 06:56:52;;;;;;;20.10;14.05;;;19.20;75.40;;;;;;9178514;19;20048;-67
2022/08/19 06:59:57;;;;;;;18.60;13.18;;;19.40;75.40;;;;;;9178113;19;20472;-67
2022/08/19 07:03:02;;;;;;;22.50;13.30;;;19.60;75.50;;;;;;9177534;19;20348;-68
2022/08/19 07:06:15;;;;;;;24.58;13.52;;;19.80;75.50;;;;;;9174743;19;20051;-67
2022/08/19 07:09:45;;;;;;;20.48;13.30;;;20.00;75.40;;;;;;9175802;19;20042;-67
2022/08/19 07:13:03;;;;;;;26.70;14.47;;;20.20;75.40;;;;;;9177497;19;20051;-68
2022/08/19 07:16:09;;;;;;;23.35;14.52;;;20.40;75.20;;;;;;9183486;19;20471;-68
2022/08/19 07:19:17;;;;;;;23.40;14.38;;;20.50;75.20;;;;;;9186251;19;20135;-68
2022/08/19 07:22:23;;;;;;;22.70;12.68;;;20.80;75.40;;;;;;9186538;19;20054;-66
2022/08/19 07:25:30;;;;;;;20.20;13.90;;;21.00;75.20;;;;;;9186414;19;20010;-67
2022/08/19 07:28:38;;;;;;;22.50;14.10;;;21.20;75.20;;;;;;9185770;19;20078;-67
2022/08/19 07:31:56;;;;;;;19.42;12.88;;;21.40;75.70;;;;;;9187334;19;20444;-67
2022/08/19 07:35:03;;;;;;;24.75;12.95;;;21.60;75.00;;;;;;9184309;19;20010;-68
2022/08/19 07:38:08;;;;;;;18.13;12.27;;;21.90;75.00;;;;;;9185717;19;20019;-65
2022/08/19 07:41:18;;;;;;;18.92;12.30;;;22.20;74.80;;;;;;9180821;19;20025;-66
2022/08/19 07:44:23;;;;;;;23.08;11.88;;;22.30;74.50;;;;;;9182066;19;20019;-66
2022/08/19 07:47:29;;;;;;;18.85;11.15;;;22.60;74.40;;;;;;9185107;19;20341;-66
2022/08/19 07:50:55;;;;;;;19.58;12.05;;;22.80;74.10;;;;;;9182166;19;20022;-65
2022/08/19 07:54:00;;;;;;;22.90;11.70;;;23.00;73.90;;;;;;9183981;19;20016;-67
2022/08/19 07:57:08;;;;;;;18.67;12.48;;;23.20;73.70;;;;;;9185624;19;20010;-69
2022/08/19 08:00:14;;;;;;;17.30;10.60;;;23.40;73.50;;;;;;9182529;19;20394;-67
2022/08/19 08:09:10;;;;;;;22.20;12.68;;;23.60;73.30;;;;;;9181867;19;20044;-67
2022/08/19 08:10:06;;;;;;;15.48;11.20;;;23.90;72.90;;;;;;9181674;19;20026;-67
2022/08/19 08:13:27;;;;;;;20.50;11.50;;;24.00;72.70;;;;;;9181309;19;20015;-68
2022/08/19 08:16:33;;;;;;;17.58;10.70;;;24.20;72.50;;;;;;9182585;19;20554;-66
2022/08/19 08:19:40;;;;;;;15.00;10.55;;;24.30;72.30;;;;;;9180786;19;20078;-67
2022/08/19 08:26:04;;;;;;;14.88;9.60;;;24.60;72.00;;;;;;9181812;19;20470;-66
2022/08/19 08:29:12;;;;;;;17.90;11.27;;;24.80;71.90;;;;;;9180024;19;20365;-66
2022/08/19 08:32:18;;;;;;;21.45;12.02;;;25.00;71.70;;;;;;9182177;19;20014;-68
2022/08/19 08:35:25;;;;;;;22.40;11.52;;;25.10;72.00;;;;;;9182490;19;20019;-68
2022/08/19 08:38:31;;;;;;;19.52;11.90;;;25.30;71.30;;;;;;9181820;19;20010;-67
2022/08/19 08:41:49;;;;;;;19.50;11.07;;;25.40;71.10;;;;;;9182242;19;20006;-68
2022/08/19 08:45:02;;;;;;;20.13;13.27;;;25.50;70.70;;;;;;9178614;19;20015;-68
2022/08/19 08:48:18;;;;;;;16.75;11.20;;;25.70;70.50;;;;;;9181130;19;20017;-67
2022/08/19 08:51:34;;;;;;;17.85;11.82;;;25.80;70.20;;;;;;9181262;19;20581;-67
2022/08/19 08:54:44;;;;;;;16.88;11.20;;;26.00;70.10;;;;;;9180426;19;20019;-68
2022/08/19 08:58:05;;;;;;;20.55;10.88;;;26.10;69.80;;;;;;9181239;19;20099;-67
2022/08/19 09:01:13;;;;;;;19.90;11.38;;;26.30;69.70;;;;;;9180882;19;20018;-68
2022/08/19 09:04:19;;;;;;;19.23;9.88;;;26.40;69.30;;;;;;9172736;19;20025;-67
2022/08/19 09:07:39;;;;;;;18.08;11.20;;;26.60;69.20;;;;;;9180008;19;20051;-66
2022/08/19 09:10:53;;;;;;;16.38;9.43;;;26.70;68.80;;;;;;9178606;19;20014;-67
2022/08/19 09:14:10;;;;;;;12.02;8.40;;;26.80;68.60;;;;;;9180363;19;20018;-67
2022/08/19 09:17:39;;;;;;;21.02;10.27;;;27.00;68.40;;;;;;9179926;19;20474;-68
2022/08/19 09:20:44;;;;;;;15.90;10.40;;;27.20;68.20;;;;;;9181679;19;20459;-67
2022/08/19 09:23:49;;;;;;;12.90;9.15;;;27.30;67.90;;;;;;9179194;19;20365;-66
2022/08/19 09:26:55;;;;;;;12.95;8.88;;;27.40;67.60;;;;;;9182128;19;20356;-67
2022/08/19 09:30:01;;;;;;;13.95;8.80;;;27.50;67.30;;;;;;9181083;19;20057;-67
2022/08/19 09:33:09;;;;;;;13.20;7.80;;;27.60;67.00;;;;;;9180462;19;20014;-66
2022/08/19 09:36:18;;;;;;;17.08;10.18;;;27.70;66.80;;;;;;9180753;19;20022;-67
2022/08/19 09:39:38;;;;;;;17.55;9.65;;;27.90;66.70;;;;;;9179627;19;20018;-67
2022/08/19 09:42:44;;;;;;;13.68;8.27;;;28.00;66.60;;;;;;9179093;19;20014;-66
2022/08/19 09:45:55;;;;;;;13.65;8.98;;;28.20;66.40;;;;;;9179485;19;20026;-67
2022/08/19 09:49:05;;;;;;;14.70;8.32;;;28.30;66.00;;;;;;9181043;19;20026;-68
2022/08/19 09:52:11;;;;;;;13.38;8.52;;;28.40;65.60;;;;;;9181520;19;20086;-66
2022/08/19 09:55:18;;;;;;;14.18;8.27;;;28.60;65.50;;;;;;9180979;19;20502;-66
2022/08/19 09:58:27;;;;;;;11.93;6.80;;;28.70;65.10;;;;;;9179446;19;20014;-69
2022/08/19 10:01:33;;;;;;;8.38;4.60;;;28.90;65.60;;;;;;9178424;19;20479;-66
2022/08/19 10:08:01;;;;;;;9.13;5.65;;;29.20;64.10;;;;;;9180533;19;20015;-68
2022/08/19 10:11:09;;;;;;;6.32;3.88;;;29.40;64.00;;;;;;9179470;19;20011;-66
2022/08/19 10:14:34;;;;;;;11.30;4.80;;;29.60;63.60;;;;;;9179914;19;20021;-67
2022/08/19 10:17:39;;;;;;;7.55;3.90;;;29.70;63.10;;;;;;9178501;19;20018;-68
2022/08/19 10:20:54;;;;;;;6.80;4.28;;;29.80;62.70;;;;;;9179907;19;20025;-66
2022/08/19 10:24:03;;;;;;;6.45;4.20;;;29.90;62.20;;;;;;9180047;19;20771;-67
2022/08/19 10:27:09;;;;;;;6.30;4.22;;;29.90;61.80;;;;;;9177576;19;20022;-69
2022/08/19 10:30:15;;;;;;;6.63;4.55;;;29.90;61.40;;;;;;9179884;19;20119;-66
2022/08/19 10:33:21;;;;;;;7.20;4.55;;;29.90;61.20;;;;;;9177929;19;20011;-68
2022/08/19 10:36:49;;;;;;;5.93;4.72;;;29.90;61.70;;;;;;9177064;19;20110;-69
2022/08/19 10:40:05;;;;;;;6.53;5.03;;;30.00;60.90;;;;;;9176135;19;20022;-66
2022/08/19 10:43:11;;;;;;;6.95;4.90;;;30.00;60.80;;;;;;9179315;19;20018;-67
2022/08/19 10:46:18;;;;;;;9.38;5.05;;;30.10;60.60;;;;;;9177053;19;20474;-68
2022/08/19 10:49:23;;;;;;;8.80;4.82;;;30.20;60.30;;;;;;9178987;19;20018;-66
2022/08/19 10:52:35;;;;;;;6.00;4.43;;;30.20;60.20;;;;;;9188169;19;20011;-65
2022/08/19 10:59:02;;;;;;;5.88;3.83;;;30.50;59.80;;;;;;9187894;19;20022;-68
2022/08/19 11:02:11;;;;;;;5.57;3.95;;;30.60;59.60;;;;;;9188481;19;20013;-66
2022/08/19 11:05:17;;;;;;;5.70;3.90;;;30.70;59.20;;;;;;9182112;19;20021;-68
2022/08/19 11:08:26;;;;;;;7.65;4.75;;;30.90;59.00;;;;;;9188105;19;20026;-68
2022/08/19 11:11:31;;;;;;;8.00;4.07;;;31.00;58.60;;;;;;9187071;19;20064;-68
2022/08/19 11:14:42;;;;;;;9.85;6.03;;;31.10;58.40;;;;;;9187051;19;20021;-67
2022/08/19 11:17:47;;;;;;;8.60;5.30;;;31.30;58.20;;;;;;9185578;19;20364;-69
2022/08/19 11:20:52;;;;;;;10.52;5.47;;;31.40;58.00;;;;;;9187143;19;20073;-66
2022/08/19 11:24:02;;;;;;;9.30;4.50;;;31.50;57.80;;;;;;9185981;19;20018;-69
2022/08/19 11:27:10;;;;;;;5.57;4.38;;;31.60;57.40;;;;;;9184175;19;20346;-69
2022/08/19 11:30:16;;;;;;;7.80;4.97;;;31.80;57.30;;;;;;9186951;19;20022;-68
2022/08/19 11:33:21;;;;;;;9.68;5.25;;;31.90;57.00;;;;;;9186350;19;20021;-68
2022/08/19 11:36:26;;;;;;;10.55;5.55;;;32.00;56.80;;;;;;9183121;19;20022;-68
2022/08/19 11:39:36;;;;;;;10.63;4.88;;;32.10;56.50;;;;;;9185701;19;20390;-68
2022/08/19 11:42:57;;;;;;;6.95;4.78;;;32.10;56.20;;;;;;9186075;19;20023;-71
2022/08/19 11:46:02;;;;;;;7.47;4.43;;;32.20;56.20;;;;;;9184218;19;20365;-68
2022/08/19 11:49:09;;;;;;;8.10;4.60;;;32.30;56.00;;;;;;9185406;19;20125;-66
2022/08/19 11:52:17;;;;;;;10.98;5.25;;;32.40;55.70;;;;;;9186494;19;20023;-69
2022/08/19 11:55:26;;;;;;;7.55;5.05;;;32.50;55.60;;;;;;9186080;19;20014;-69
2022/08/19 11:58:31;;;;;;;8.07;4.13;;;32.50;55.30;;;;;;9186828;19;20021;-65
2022/08/19 12:01:37;;;;;;;9.38;4.60;;;32.50;55.20;;;;;;9184813;19;20021;-66
2022/08/19 12:04:42;;;;;;;6.68;4.28;;;32.50;55.00;;;;;;9184725;19;20015;-68
2022/08/19 12:07:47;;;;;;;5.25;4.38;;;32.60;54.90;;;;;;9184501;19;20960;-66
2022/08/19 12:10:57;;;;;;;9.27;4.75;;;32.60;54.70;;;;;;9184842;19;20033;-70
2022/08/19 12:14:03;;;;;;;4.60;3.60;;;32.60;54.40;;;;;;9185689;19;20011;-67
2022/08/19 12:17:08;;;;;;;6.40;3.58;;;32.60;54.20;;;;;;9185194;19;20344;-66
2022/08/19 12:20:16;;;;;;;6.15;4.55;;;32.70;54.00;;;;;;9184669;19;20011;-66
2022/08/19 12:23:22;;;;;;;9.20;5.25;;;32.60;53.70;;;;;;9185574;19;20018;-68
2022/08/19 12:26:31;;;;;;;7.95;4.50;;;32.60;53.70;;;;;;9182496;19;20120;-66
2022/08/19 12:29:36;;;;;;;7.55;4.47;;;32.50;53.30;;;;;;9184244;19;20426;-65
2022/08/19 12:32:41;;;;;;;7.40;4.75;;;32.40;53.30;;;;;;9178951;19;20443;-68
2022/08/19 12:35:48;;;;;;;7.38;5.35;;;32.30;53.20;;;;;;9182767;19;20018;-66
2022/08/19 12:38:54;;;;;;;10.65;5.88;;;32.10;53.10;;;;;;9183656;19;20397;-67
2022/08/19 12:42:02;;;;;;;8.40;5.45;;;32.00;53.20;;;;;;9185096;19;20014;-67
2022/08/19 12:45:07;;;;;;;7.45;5.30;;;31.80;53.00;;;;;;9182473;19;20010;-67
2022/08/19 12:48:12;;;;;;;7.78;4.93;;;31.70;53.10;;;;;;9183761;19;20025;-68
2022/08/19 12:51:38;;;;;;;6.90;4.63;;;31.50;53.20;;;;;;9183443;19;20018;-67
2022/08/19 12:54:43;;;;;;;6.90;4.70;;;31.40;53.30;;;;;;9183593;19;20021;-66
2022/08/19 12:57:50;;;;;;;6.78;4.82;;;31.30;53.20;;;;;;9183570;19;20333;-67
2022/08/19 13:00:55;;;;;;;8.70;5.40;;;31.20;53.00;;;;;;9183833;19;20025;-67
2022/08/19 13:04:01;;;;;;;9.38;5.68;;;31.20;53.10;;;;;;9182551;19;20025;-66
2022/08/19 13:07:06;;;;;;;13.93;4.82;;;31.10;53.00;;;;;;9176774;19;20018;-67
2022/08/19 13:10:15;;;;;;;9.23;5.10;;;31.10;52.90;;;;;;9182730;19;20014;-64
2022/08/19 13:13:25;;;;;;;6.28;5.45;;;31.10;52.80;;;;;;9176928;19;20089;-68
2022/08/19 13:16:31;;;;;;;7.85;5.13;;;31.10;52.60;;;;;;9182110;19;20027;-68
2022/08/19 13:19:39;;;;;;;9.60;6.40;;;31.10;52.60;;;;;;9181783;19;20019;-69
2022/08/19 13:22:45;;;;;;;7.07;4.90;;;31.20;52.50;;;;;;9182032;19;20372;-69
2022/08/19 13:25:58;;;;;;;7.63;5.00;;;31.20;52.30;;;;;;9179769;19;20348;-69
2022/08/19 13:35:41;;;;;;;5.70;4.05;;;31.40;52.50;;;;;;9181360;19;20528;-68
2022/08/19 13:38:46;;;;;;;9.18;4.30;;;31.40;52.10;;;;;;9179269;19;20015;-69
2022/08/19 13:41:51;;;;;;;8.18;4.78;;;31.50;51.90;;;;;;9181317;19;20939;-67
2022/08/19 13:44:59;;;;;;;9.93;4.18;;;31.60;51.70;;;;;;9181157;19;20030;-67
2022/08/19 13:48:08;;;;;;;8.18;5.60;;;31.60;51.50;;;;;;9179821;19;20018;-67
2022/08/19 13:51:13;;;;;;;7.55;5.10;;;31.60;51.40;;;;;;9181359;19;20518;-68
2022/08/19 13:54:18;;;;;;;8.75;5.82;;;31.70;51.40;;;;;;9180933;19;20015;-68
2022/08/19 13:57:23;;;;;;;8.10;5.68;;;31.70;51.20;;;;;;9181188;19;20026;-66
2022/08/19 14:00:32;;;;;;;10.70;5.15;;;31.80;51.70;;;;;;9181683;19;20026;-68
2022/08/19 14:03:39;;;;;;;10.20;5.90;;;31.80;50.90;;;;;;9178951;19;20014;-68
2022/08/19 14:06:44;;;;;;;13.30;5.85;;;31.80;51.00;;;;;;9174813;19;20021;-66
2022/08/19 14:09:48;;;;;;;8.32;5.85;;;31.80;50.90;;;;;;9180146;19;20025;-65
2022/08/19 14:12:57;;;;;;;9.25;5.57;;;31.80;50.80;;;;;;9178489;19;20026;-69
2022/08/19 14:16:10;;;;;;;10.65;5.35;;;31.80;50.70;;;;;;9172461;19;20023;-68
2022/08/19 14:19:15;;;;;;;8.63;6.00;;;31.80;50.50;;;;;;9172934;19;20127;-66
2022/08/19 14:22:20;;;;;;;6.30;4.40;;;31.80;51.20;;;;;;9166652;19;20021;-67
2022/08/19 14:25:30;;;;;;;7.57;4.60;;;31.70;50.40;;;;;;9178429;19;20771;-67
2022/08/19 14:28:36;;;;;;;7.53;5.03;;;31.70;50.20;;;;;;9180256;19;20021;-67
2022/08/19 14:31:43;;;;;;;8.13;4.78;;;31.60;50.30;;;;;;9182294;19;20021;-67
2022/08/19 14:34:48;;;;;;;7.22;4.38;;;31.50;50.10;;;;;;9179044;19;20015;-69
2022/08/19 14:37:55;;;;;;;7.22;5.22;;;31.50;50.20;;;;;;9182671;19;20025;-67
2022/08/19 14:41:10;;;;;;;7.70;4.90;;;31.40;50.10;;;;;;9177571;19;20040;-65
2022/08/19 14:44:15;;;;;;;5.75;4.22;;;31.40;49.80;;;;;;9182251;19;20030;-66
2022/08/19 14:47:22;;;;;;;5.60;3.90;;;31.30;50.00;;;;;;9178002;19;20022;-67
2022/08/19 14:50:27;;;;;;;5.60;4.10;;;31.30;50.00;;;;;;9181847;19;20010;-68
2022/08/19 14:53:33;;;;;;;6.32;3.80;;;31.20;50.10;;;;;;9180946;19;20555;-68
2022/08/19 14:56:38;;;;;;;7.68;5.28;;;31.10;49.90;;;;;;9179991;19;20021;-68
2022/08/19 14:59:43;;;;;;;9.07;5.78;;;31.10;49.90;;;;;;9180779;19;20018;-67
2022/08/19 15:02:51;;;;;;;10.70;6.25;;;31.00;50.00;;;;;;9180852;19;20018;-68
2022/08/19 15:05:56;;;;;;;10.98;5.72;;;30.90;49.90;;;;;;9177725;19;20022;-68
2022/08/19 15:09:02;;;;;;;10.95;6.15;;;30.90;50.00;;;;;;9179137;19;20693;-66
2022/08/19 15:12:10;;;;;;;9.18;5.50;;;30.80;49.90;;;;;;9180520;19;20097;-68
2022/08/19 15:15:17;;;;;;;7.72;5.13;;;30.80;50.50;;;;;;9179039;19;20050;-66
2022/08/19 15:18:25;;;;;;;14.95;6.43;;;30.70;49.80;;;;;;9180655;19;20014;-69
2022/08/19 15:21:32;;;;;;;16.67;6.13;;;30.70;49.90;;;;;;9174768;19;20018;-66
2022/08/19 15:24:37;;;;;;;9.38;6.10;;;30.60;49.90;;;;;;9177110;19;20017;-68
2022/08/19 15:27:52;;;;;;;8.55;6.10;;;30.60;50.00;;;;;;9174817;19;20026;-65
2022/08/19 15:30:57;;;;;;;8.68;5.75;;;30.60;50.10;;;;;;9178574;19;20026;-70
2022/08/19 15:34:06;;;;;;;8.25;5.75;;;30.60;50.10;;;;;;9179628;19;20022;-69
2022/08/19 15:37:14;;;;;;;9.23;6.47;;;30.60;50.00;;;;;;9177898;19;20018;-67
2022/08/19 15:40:20;;;;;;;9.82;6.57;;;30.60;50.10;;;;;;9176968;19;20018;-69
2022/08/19 15:43:25;;;;;;;10.32;6.22;;;30.50;50.20;;;;;;9180118;19;20454;-67
2022/08/19 15:46:32;;;;;;;12.95;6.03;;;30.50;50.20;;;;;;9176955;19;20014;-69
2022/08/19 15:49:40;;;;;;;11.23;6.47;;;30.40;50.20;;;;;;9178746;19;20007;-68
2022/08/19 15:52:49;;;;;;;17.65;9.07;;;30.40;50.30;;;;;;9170602;19;20022;-70
2022/08/19 15:55:54;;;;;;;21.73;10.43;;;30.30;50.60;;;;;;9174865;19;20057;-69
2022/08/19 16:08:57;;;;;;;23.27;12.93;;;30.10;51.80;;;;;;9167644;19;20018;-69
2022/08/19 16:12:04;;;;;;;28.20;13.73;;;30.00;52.00;;;;;;9171613;19;20842;-68
2022/08/19 16:15:10;;;;;;;24.77;14.25;;;29.90;52.20;;;;;;9170303;19;20018;-69
2022/08/19 16:18:17;;;;;;;25.80;14.63;;;29.90;52.50;;;;;;9171711;19;20014;-70
2022/08/19 16:21:31;;;;;;;27.50;14.50;;;29.70;52.70;;;;;;9171489;19;20388;-69
2022/08/19 16:24:36;;;;;;;23.80;13.38;;;29.60;53.00;;;;;;9171670;19;20017;-68
2022/08/19 16:27:41;;;;;;;21.88;11.98;;;29.50;53.10;;;;;;9168388;19;20023;-68
2022/08/19 16:31:07;;;;;;;23.40;13.60;;;29.40;53.30;;;;;;9171432;19;20019;-68
2022/08/19 16:34:13;;;;;;;21.50;12.77;;;29.30;53.40;;;;;;9173382;19;20400;-67
2022/08/19 16:37:22;;;;;;;23.70;12.98;;;29.20;53.60;;;;;;9171497;19;20022;-67
2022/08/19 16:40:27;;;;;;;21.70;12.20;;;29.10;53.70;;;;;;9166881;19;20030;-68